createdAt,value
2016-06-04T00:00:06.964Z,18.63
2016-06-04T00:00:17.136Z,18.73
2016-06-04T00:00:27.136Z,18.63
2016-06-04T00:00:37.263Z,18.63
2016-06-04T00:00:47.153Z,18.62
2016-06-04T00:00:57.153Z,18.62
2016-06-04T00:01:07.153Z,18.65
2016-06-04T00:01:17.169Z,18.5
2016-06-04T00:01:27.263Z,18.57
2016-06-04T00:01:37.188Z,18.58
2016-06-04T00:01:47.203Z,18.44
2016-06-04T00:01:57.188Z,18.48
2016-06-04T00:02:07.188Z,18.44
2016-06-04T00:02:17.203Z,18.47
2016-06-04T00:02:27.235Z,18.45
2016-06-04T00:02:37.221Z,18.42
2016-06-04T00:02:47.221Z,18.39
2016-06-04T00:02:57.221Z,18.35
2016-06-04T00:03:07.237Z,18.37
2016-06-04T00:03:17.283Z,18.41
2016-06-04T00:03:27.237Z,18.33
2016-06-04T00:03:37.303Z,18.36
2016-06-04T00:03:47.256Z,18.37
2016-06-04T00:03:57.272Z,18.47
2016-06-04T00:04:07.272Z,18.42
2016-06-04T00:04:17.272Z,18.42
2016-06-04T00:04:27.272Z,18.45
2016-06-04T00:04:37.289Z,18.51
2016-06-04T00:04:47.289Z,18.42
2016-06-04T00:04:57.289Z,18.6
2016-06-04T00:05:07.305Z,18.57
2016-06-04T00:05:17.305Z,18.54
2016-06-04T00:05:27.383Z,18.6
2016-06-04T00:05:37.308Z,18.47
2016-06-04T00:05:47.324Z,18.42
2016-06-04T00:05:57.324Z,18.51
2016-06-04T00:06:07.339Z,18.48
2016-06-04T00:06:17.449Z,18.51
2016-06-04T00:06:27.199Z,18.5
2016-06-04T00:06:37.358Z,18.48
2016-06-04T00:06:47.514Z,18.54
2016-06-04T00:06:57.374Z,18.44
2016-06-04T00:07:07.374Z,18.37
2016-06-04T00:07:17.374Z,18.48
2016-06-04T00:07:27.374Z,18.37
2016-06-04T00:07:37.376Z,18.36
2016-06-04T00:07:47.391Z,18.33
2016-06-04T00:07:57.438Z,18.29
2016-06-04T00:08:07.422Z,18.32
2016-06-04T00:08:17.407Z,18.29
2016-06-04T00:08:27.407Z,18.32
2016-06-04T00:08:37.425Z,18.29
2016-06-04T00:08:47.425Z,18.32
2016-06-04T00:08:57.441Z,18.25
2016-06-04T00:09:07.425Z,18.21
2016-06-04T00:09:17.441Z,18.3
2016-06-04T00:09:27.441Z,18.18
2016-06-04T00:09:37.553Z,18.17
2016-06-04T00:09:47.475Z,18.14
2016-06-04T00:09:57.460Z,18.25
2016-06-04T00:10:07.460Z,18.17
2016-06-04T00:10:17.522Z,18.15
2016-06-04T00:10:27.491Z,18.15
2016-06-04T00:10:38.024Z,18.12
2016-06-04T00:10:47.868Z,18.11
2016-06-04T00:10:57.509Z,18.11
2016-06-04T00:11:07.930Z,18.08
2016-06-04T00:11:17.509Z,18.08
2016-06-04T00:11:27.618Z,18.08
2016-06-04T00:11:37.368Z,18.07
2016-06-04T00:11:47.401Z,18.07
2016-06-04T00:11:57.542Z,18.07
2016-06-04T00:12:07.542Z,18.11
2016-06-04T00:12:17.714Z,18.08
2016-06-04T00:12:27.542Z,18.1
2016-06-04T00:12:37.561Z,18.11
2016-06-04T00:12:47.561Z,18.11
2016-06-04T00:12:57.561Z,18.05
2016-06-04T00:13:07.624Z,18.05
2016-06-04T00:13:17.577Z,18.02
2016-06-04T00:13:27.593Z,17.97
2016-06-04T00:13:37.595Z,18
2016-06-04T00:13:47.626Z,17.96
2016-06-04T00:13:57.673Z,18
2016-06-04T00:14:07.454Z,18
2016-06-04T00:14:17.610Z,17.89
2016-06-04T00:14:27.626Z,17.89
2016-06-04T00:14:37.645Z,17.93
2016-06-04T00:14:47.629Z,17.9
2016-06-04T00:14:57.645Z,18
2016-06-04T00:15:07.645Z,17.96
2016-06-04T00:15:17.645Z,17.99
2016-06-04T00:15:27.801Z,17.92
2016-06-04T00:15:37.725Z,17.95
2016-06-04T00:15:47.662Z,17.93
2016-06-04T00:15:57.834Z,17.92
2016-06-04T00:16:07.756Z,17.84
2016-06-04T00:16:17.693Z,17.92
2016-06-04T00:16:27.693Z,17.81
2016-06-04T00:16:37.759Z,17.82
2016-06-04T00:16:47.696Z,17.79
2016-06-04T00:16:57.821Z,17.82
2016-06-04T00:17:07.790Z,17.84
2016-06-04T00:17:17.806Z,17.81
2016-06-04T00:17:27.728Z,17.82
2016-06-04T00:17:37.793Z,17.87
2016-06-04T00:17:47.746Z,17.89
2016-06-04T00:17:57.715Z,17.78
2016-06-04T00:18:07.762Z,17.86
2016-06-04T00:18:17.762Z,17.74
2016-06-04T00:18:27.762Z,17.75
2016-06-04T00:18:37.764Z,17.74
2016-06-04T00:18:47.764Z,17.84
2016-06-04T00:18:57.780Z,17.68
2016-06-04T00:19:07.780Z,17.75
2016-06-04T00:19:17.795Z,17.75
2016-06-04T00:19:27.780Z,17.68
2016-06-04T00:19:37.799Z,17.7
2016-06-04T00:19:47.799Z,17.81
2016-06-04T00:19:57.799Z,17.75
2016-06-04T00:20:07.815Z,17.77
2016-06-04T00:20:17.830Z,17.81
2016-06-04T00:20:27.846Z,17.82
2016-06-04T00:20:37.895Z,17.89
2016-06-04T00:20:47.848Z,17.79
2016-06-04T00:20:57.864Z,17.79
2016-06-04T00:21:07.879Z,17.79
2016-06-04T00:21:17.879Z,17.74
2016-06-04T00:21:27.848Z,17.77
2016-06-04T00:21:37.898Z,17.75
2016-06-04T00:21:47.867Z,17.78
2016-06-04T00:21:57.882Z,17.72
2016-06-04T00:22:07.898Z,17.78
2016-06-04T00:22:18.132Z,17.63
2016-06-04T00:22:27.898Z,17.66
2016-06-04T00:22:37.900Z,17.7
2016-06-04T00:22:47.900Z,17.7
2016-06-04T00:22:57.916Z,17.68
2016-06-04T00:23:07.916Z,17.63
2016-06-04T00:23:17.947Z,17.66
2016-06-04T00:23:27.931Z,17.59
2016-06-04T00:23:37.934Z,17.62
2016-06-04T00:23:47.934Z,17.63
2016-06-04T00:23:57.950Z,17.63
2016-06-04T00:24:07.965Z,17.56
2016-06-04T00:24:17.950Z,17.7
2016-06-04T00:24:27.950Z,17.59
2016-06-04T00:24:37.968Z,17.64
2016-06-04T00:24:47.968Z,17.54
2016-06-04T00:24:57.984Z,17.49
2016-06-04T00:25:07.984Z,17.51
2016-06-04T00:25:17.984Z,17.58
2016-06-04T00:25:28.000Z,17.58
2016-06-04T00:25:38.018Z,17.48
2016-06-04T00:25:48.768Z,17.62
2016-06-04T00:25:59.096Z,17.49
2016-06-04T00:26:08.893Z,17.52
2016-06-04T00:26:18.018Z,17.54
2016-06-04T00:26:28.034Z,17.51
2016-06-04T00:26:38.067Z,17.51
2016-06-04T00:26:48.052Z,17.54
2016-06-04T00:26:58.677Z,17.38
2016-06-04T00:27:08.052Z,17.38
2016-06-04T00:27:18.083Z,17.41
2016-06-04T00:27:28.067Z,17.46
2016-06-04T00:27:38.116Z,17.33
2016-06-04T00:27:48.085Z,17.37
2016-06-04T00:27:58.210Z,17.46
2016-06-04T00:28:08.085Z,17.36
2016-06-04T00:28:18.194Z,17.38
2016-06-04T00:28:28.100Z,17.37
2016-06-04T00:28:38.104Z,17.4
2016-06-04T00:28:48.120Z,17.38
2016-06-04T00:28:58.198Z,17.37
2016-06-04T00:29:08.261Z,17.33
2016-06-04T00:29:18.120Z,17.31
2016-06-04T00:29:28.136Z,17.36
2016-06-04T00:29:38.200Z,17.36
2016-06-04T00:29:48.278Z,17.38
2016-06-04T00:29:58.153Z,17.28
2016-06-04T00:30:08.200Z,17.37
2016-06-04T00:30:18.216Z,17.31
2016-06-04T00:30:28.169Z,17.34
2016-06-04T00:30:38.281Z,17.26
2016-06-04T00:30:48.344Z,17.31
2016-06-04T00:30:58.188Z,17.31
2016-06-04T00:31:08.328Z,17.31
2016-06-04T00:31:18.281Z,17.25
2016-06-04T00:31:28.203Z,17.31
2016-06-04T00:31:38.205Z,17.16
2016-06-04T00:31:48.361Z,17.28
2016-06-04T00:31:58.205Z,17.28
2016-06-04T00:32:08.268Z,17.26
2016-06-04T00:32:18.221Z,17.18
2016-06-04T00:32:28.330Z,17.18
2016-06-04T00:32:38.239Z,17.14
2016-06-04T00:32:48.411Z,17.25
2016-06-04T00:32:58.286Z,17.26
2016-06-04T00:33:08.302Z,17.19
2016-06-04T00:33:18.396Z,17.19
2016-06-04T00:33:28.271Z,17.25
2016-06-04T00:33:38.305Z,17.19
2016-06-04T00:33:48.336Z,17.15
2016-06-04T00:33:58.274Z,17.21
2016-06-04T00:34:08.289Z,17.26
2016-06-04T00:34:18.305Z,17.21
2016-06-04T00:34:28.336Z,17.25
2016-06-04T00:34:38.308Z,17.21
2016-06-04T00:34:48.620Z,17.23
2016-06-04T00:34:58.339Z,17.11
2016-06-04T00:35:08.402Z,17.04
2016-06-04T00:35:18.324Z,17.07
2016-06-04T00:35:28.402Z,17.01
2016-06-04T00:35:38.388Z,17.12
2016-06-04T00:35:48.404Z,17.21
2016-06-04T00:35:58.357Z,17.25
2016-06-04T00:36:08.357Z,17.28
2016-06-04T00:36:18.466Z,17.16
2016-06-04T00:36:28.372Z,17.16
2016-06-04T00:36:38.485Z,17.06
2016-06-04T00:36:48.454Z,17.08
2016-06-04T00:36:58.391Z,17.18
2016-06-04T00:37:08.391Z,17.16
2016-06-04T00:37:18.407Z,17.19
2016-06-04T00:37:28.407Z,17.15
2016-06-04T00:37:38.410Z,17.07
2016-06-04T00:37:48.410Z,17.06
2016-06-04T00:37:58.425Z,17.11
2016-06-04T00:38:08.425Z,17.11
2016-06-04T00:38:18.441Z,17.11
2016-06-04T00:38:28.441Z,17.12
2016-06-04T00:38:38.444Z,17.11
2016-06-04T00:38:48.616Z,17.12
2016-06-04T00:38:58.460Z,17.04
2016-06-04T00:39:08.475Z,17.08
2016-06-04T00:39:18.522Z,17.12
2016-06-04T00:39:29.022Z,17.07
2016-06-04T00:39:38.602Z,17.08
2016-06-04T00:39:48.587Z,17.07
2016-06-04T00:40:07.696Z,17.11
2016-06-04T00:40:17.712Z,17.03
2016-06-04T00:40:28.102Z,17.03
2016-06-04T00:40:37.821Z,17.04
2016-06-04T00:40:47.808Z,17.06
2016-06-04T00:40:57.418Z,17.01
2016-06-04T00:41:08.043Z,17.03
2016-06-04T00:41:18.043Z,16.98
2016-06-04T00:41:37.480Z,17.03
2016-06-04T00:41:47.264Z,16.97
2016-06-04T00:41:57.249Z,17.01
2016-06-04T00:42:07.311Z,16.96
2016-06-04T00:42:17.983Z,16.98
2016-06-04T00:42:27.280Z,16.97
2016-06-04T00:42:46.516Z,16.93
2016-06-04T00:42:56.501Z,16.94
2016-06-04T00:43:06.891Z,16.97
2016-06-04T00:43:16.438Z,16.97
2016-06-04T00:43:26.516Z,16.96
2016-06-04T00:43:36.454Z,16.96
2016-06-04T00:43:46.941Z,16.94
2016-06-04T00:43:56.441Z,16.94
2016-06-04T00:44:06.644Z,16.89
2016-06-04T00:44:16.598Z,17.03
2016-06-04T00:44:35.691Z,16.88
2016-06-04T00:44:46.053Z,16.91
2016-06-04T00:44:55.756Z,16.89
2016-06-04T00:45:05.756Z,16.93
2016-06-04T00:45:15.725Z,16.89
2016-06-04T00:45:26.006Z,16.89
2016-06-04T00:45:35.662Z,16.89
2016-06-04T00:45:45.697Z,16.88
2016-06-04T00:45:55.666Z,16.88
2016-06-04T00:46:05.635Z,16.89
2016-06-04T00:46:15.713Z,16.89
2016-06-04T00:46:25.650Z,16.96
2016-06-04T00:46:35.650Z,16.88
2016-06-04T00:46:45.668Z,16.88
2016-06-04T00:46:55.668Z,16.89
2016-06-04T00:47:05.684Z,16.88
2016-06-04T00:47:15.668Z,16.86
2016-06-04T00:47:25.684Z,16.89
2016-06-04T00:47:35.684Z,16.93
2016-06-04T00:47:45.702Z,16.88
2016-06-04T00:47:55.702Z,16.93
2016-06-04T00:48:05.702Z,16.93
2016-06-04T00:48:15.718Z,16.88
2016-06-04T00:48:25.718Z,16.97
2016-06-04T00:48:35.718Z,16.93
2016-06-04T00:48:45.736Z,16.94
2016-06-04T00:48:55.736Z,16.89
2016-06-04T00:49:05.736Z,16.93
2016-06-04T00:49:15.736Z,16.81
2016-06-04T00:49:25.751Z,16.93
2016-06-04T00:49:35.751Z,16.91
2016-06-04T00:49:45.770Z,16.85
2016-06-04T00:49:55.770Z,16.76
2016-06-04T00:50:05.770Z,16.93
2016-06-04T00:50:15.770Z,16.76
2016-06-04T00:50:25.785Z,16.86
2016-06-04T00:50:35.785Z,16.86
2016-06-04T00:50:45.788Z,16.81
2016-06-04T00:50:55.804Z,16.85
2016-06-04T00:51:05.804Z,16.83
2016-06-04T00:51:15.820Z,16.82
2016-06-04T00:51:25.820Z,16.83
2016-06-04T00:51:35.835Z,16.85
2016-06-04T00:51:45.822Z,16.71
2016-06-04T00:51:55.837Z,16.88
2016-06-04T00:52:05.837Z,16.78
2016-06-04T00:52:15.853Z,16.88
2016-06-04T00:52:25.853Z,16.76
2016-06-04T00:52:35.869Z,16.81
2016-06-04T00:52:45.857Z,16.75
2016-06-04T00:52:55.873Z,16.76
2016-06-04T00:53:05.873Z,16.73
2016-06-04T00:53:15.888Z,16.76
2016-06-04T00:53:25.888Z,16.79
2016-06-04T00:53:35.888Z,16.76
2016-06-04T00:53:45.890Z,16.73
2016-06-04T00:53:55.750Z,16.79
2016-06-04T00:54:05.906Z,16.73
2016-06-04T00:54:15.906Z,16.78
2016-06-04T00:54:25.921Z,16.78
2016-06-04T00:54:35.921Z,16.81
2016-06-04T00:54:45.923Z,16.78
2016-06-04T00:54:55.939Z,16.67
2016-06-04T00:55:05.939Z,16.66
2016-06-04T00:55:15.939Z,16.7
2016-06-04T00:55:25.955Z,16.64
2016-06-04T00:55:35.798Z,16.71
2016-06-04T00:55:46.348Z,16.64
2016-06-04T00:55:56.551Z,16.67
2016-06-04T00:56:06.301Z,16.71
2016-06-04T00:56:16.614Z,16.64
2016-06-04T00:56:25.989Z,16.71
2016-06-04T00:56:35.911Z,16.73
2016-06-04T00:56:46.008Z,16.66
2016-06-04T00:56:56.070Z,16.68
2016-06-04T00:57:06.008Z,16.66
2016-06-04T00:57:16.008Z,16.67
2016-06-04T00:57:26.023Z,16.68
2016-06-04T00:57:36.023Z,16.64
2016-06-04T00:57:46.026Z,16.67
2016-06-04T00:57:56.042Z,16.61
2016-06-04T00:58:06.042Z,16.61
2016-06-04T00:58:16.042Z,16.61
2016-06-04T00:58:26.057Z,16.66
2016-06-04T00:58:36.057Z,16.66
2016-06-04T00:58:46.071Z,16.66
2016-06-04T00:58:56.087Z,16.6
2016-06-04T00:59:06.087Z,16.6
2016-06-04T00:59:16.087Z,16.56
2016-06-04T00:59:26.103Z,16.64
2016-06-04T00:59:36.103Z,16.52
2016-06-04T00:59:46.140Z,16.63
2016-06-04T00:59:56.155Z,16.6
2016-06-04T01:00:06.155Z,16.61
2016-06-04T01:00:16.171Z,16.61
2016-06-04T01:00:26.171Z,16.7
2016-06-04T01:00:36.171Z,16.58
2016-06-04T01:00:46.206Z,16.6
2016-06-04T01:00:56.222Z,16.57
2016-06-04T01:01:06.222Z,16.57
2016-06-04T01:01:16.237Z,16.57
2016-06-04T01:01:26.237Z,16.6
2016-06-04T01:01:36.237Z,16.56
2016-06-04T01:01:46.274Z,16.57
2016-06-04T01:01:56.290Z,16.57
2016-06-04T01:02:06.305Z,16.52
2016-06-04T01:02:16.290Z,16.53
2016-06-04T01:02:26.305Z,16.56
2016-06-04T01:02:36.305Z,16.56
2016-06-04T01:02:46.341Z,16.57
2016-06-04T01:02:56.357Z,16.57
2016-06-04T01:03:06.357Z,16.57
2016-06-04T01:03:16.357Z,16.56
2016-06-04T01:03:26.373Z,16.56
2016-06-04T01:03:36.373Z,16.5
2016-06-04T01:03:46.401Z,16.56
2016-06-04T01:03:56.416Z,16.49
2016-06-04T01:04:06.416Z,16.49
2016-06-04T01:04:16.432Z,16.5
2016-06-04T01:04:26.432Z,16.53
2016-06-04T01:04:36.432Z,16.49
2016-06-04T01:04:46.291Z,16.49
2016-06-04T01:04:56.463Z,16.48
2016-06-04T01:05:06.478Z,16.52
2016-06-04T01:05:16.463Z,16.53
2016-06-04T01:05:26.463Z,16.52
2016-06-04T01:05:36.478Z,16.52
2016-06-04T01:05:46.493Z,16.46
2016-06-04T01:05:56.509Z,16.53
2016-06-04T01:06:06.509Z,16.42
2016-06-04T01:06:16.509Z,16.48
2016-06-04T01:06:26.509Z,16.49
2016-06-04T01:06:36.524Z,16.5
2016-06-04T01:06:46.554Z,16.46
2016-06-04T01:06:56.554Z,16.43
2016-06-04T01:07:06.554Z,16.45
2016-06-04T01:07:16.554Z,16.46
2016-06-04T01:07:26.554Z,16.43
2016-06-04T01:07:36.570Z,16.48
2016-06-04T01:07:46.585Z,16.46
2016-06-04T01:07:56.585Z,16.41
2016-06-04T01:08:06.600Z,16.43
2016-06-04T01:08:16.600Z,16.35
2016-06-04T01:08:26.600Z,16.48
2016-06-04T01:08:36.616Z,16.46
2016-06-04T01:08:46.643Z,16.42
2016-06-04T01:08:56.643Z,16.41
2016-06-04T01:09:06.643Z,16.39
2016-06-04T01:09:16.643Z,16.42
2016-06-04T01:09:26.643Z,16.41
2016-06-04T01:09:36.658Z,16.34
2016-06-04T01:09:46.665Z,16.43
2016-06-04T01:09:56.681Z,16.39
2016-06-04T01:10:06.681Z,16.46
2016-06-04T01:10:16.681Z,16.45
2016-06-04T01:10:26.681Z,16.43
2016-06-04T01:10:36.915Z,16.43
2016-06-04T01:10:46.703Z,16.41
2016-06-04T01:10:56.703Z,16.41
2016-06-04T01:11:07.094Z,16.41
2016-06-04T01:11:16.719Z,16.39
2016-06-04T01:11:26.750Z,16.39
2016-06-04T01:11:37.500Z,16.35
2016-06-04T01:11:47.289Z,16.38
2016-06-04T01:11:56.960Z,16.39
2016-06-04T01:12:06.757Z,16.42
2016-06-04T01:12:16.757Z,16.38
2016-06-04T01:12:26.757Z,16.38
2016-06-04T01:12:36.617Z,16.38
2016-06-04T01:12:46.780Z,16.41
2016-06-04T01:12:56.780Z,16.34
2016-06-04T01:13:06.796Z,16.33
2016-06-04T01:13:16.796Z,16.35
2016-06-04T01:13:26.796Z,16.35
2016-06-04T01:13:36.796Z,16.34
2016-06-04T01:13:46.817Z,16.38
2016-06-04T01:13:56.833Z,16.35
2016-06-04T01:14:06.848Z,16.33
2016-06-04T01:14:16.833Z,16.38
2016-06-04T01:14:26.833Z,16.28
2016-06-04T01:14:36.848Z,16.25
2016-06-04T01:14:46.868Z,16.28
2016-06-04T01:14:56.852Z,16.3
2016-06-04T01:15:06.868Z,16.25
2016-06-04T01:15:16.712Z,16.28
2016-06-04T01:15:26.868Z,16.33
2016-06-04T01:15:36.868Z,16.41
2016-06-04T01:15:46.888Z,16.3
2016-06-04T01:15:56.903Z,16.28
2016-06-04T01:16:06.888Z,16.27
2016-06-04T01:16:16.903Z,16.27
2016-06-04T01:16:26.935Z,16.35
2016-06-04T01:16:36.903Z,16.33
2016-06-04T01:16:46.923Z,16.27
2016-06-04T01:16:56.939Z,16.34
2016-06-04T01:17:06.939Z,16.31
2016-06-04T01:17:16.939Z,16.34
2016-06-04T01:17:26.939Z,16.31
2016-06-04T01:17:36.954Z,16.35
2016-06-04T01:17:46.959Z,16.33
2016-06-04T01:17:56.959Z,16.28
2016-06-04T01:18:06.959Z,16.3
2016-06-04T01:18:16.975Z,16.27
2016-06-04T01:18:26.975Z,16.3
2016-06-04T01:18:36.975Z,16.2
2016-06-04T01:18:47.009Z,16.23
2016-06-04T01:18:56.993Z,16.25
2016-06-04T01:19:06.993Z,16.25
2016-06-04T01:19:17.009Z,16.28
2016-06-04T01:19:27.025Z,16.27
2016-06-04T01:19:37.009Z,16.24
2016-06-04T01:19:47.028Z,16.24
2016-06-04T01:19:57.028Z,16.33
2016-06-04T01:20:07.028Z,16.31
2016-06-04T01:20:17.043Z,16.3
2016-06-04T01:20:27.059Z,16.27
2016-06-04T01:20:37.075Z,16.23
2016-06-04T01:20:47.063Z,16.27
2016-06-04T01:20:57.063Z,16.27
2016-06-04T01:21:07.063Z,16.3
2016-06-04T01:21:17.079Z,16.28
2016-06-04T01:21:27.079Z,16.3
2016-06-04T01:21:37.079Z,16.24
2016-06-04T01:21:47.097Z,16.21
2016-06-04T01:21:57.097Z,16.3
2016-06-04T01:22:07.097Z,16.28
2016-06-04T01:22:17.113Z,16.24
2016-06-04T01:22:27.113Z,16.28
2016-06-04T01:22:37.113Z,16.28
2016-06-04T01:22:47.131Z,16.27
2016-06-04T01:22:57.131Z,16.24
2016-06-04T01:23:07.131Z,16.28
2016-06-04T01:23:17.131Z,16.28
2016-06-04T01:23:27.147Z,16.08
2016-06-04T01:23:37.147Z,16.23
2016-06-04T01:23:47.166Z,16.14
2016-06-04T01:23:57.166Z,16.2
2016-06-04T01:24:07.166Z,16.2
2016-06-04T01:24:17.181Z,16.15
2016-06-04T01:24:27.181Z,16.24
2016-06-04T01:24:37.181Z,16.23
2016-06-04T01:24:47.184Z,16.24
2016-06-04T01:24:57.200Z,16.11
2016-06-04T01:25:07.200Z,16.14
2016-06-04T01:25:17.216Z,16.08
2016-06-04T01:25:27.216Z,16.14
2016-06-04T01:25:37.231Z,16.14
2016-06-04T01:25:47.234Z,16.09
2016-06-04T01:25:57.969Z,16.12
2016-06-04T01:26:07.234Z,16.23
2016-06-04T01:26:17.234Z,16.14
2016-06-04T01:26:27.250Z,16.15
2016-06-04T01:26:37.265Z,16.2
2016-06-04T01:26:47.393Z,16.15
2016-06-04T01:26:57.456Z,16.12
2016-06-04T01:27:07.268Z,16.14
2016-06-04T01:27:17.268Z,16.17
2016-06-04T01:27:27.284Z,16.09
2016-06-04T01:27:37.284Z,16.12
2016-06-04T01:27:47.287Z,16.12
2016-06-04T01:27:57.303Z,16.17
2016-06-04T01:28:07.303Z,16.05
2016-06-04T01:28:17.318Z,16.09
2016-06-04T01:28:27.303Z,16.15
2016-06-04T01:28:37.318Z,16.2
2016-06-04T01:28:47.321Z,16.12
2016-06-04T01:28:57.321Z,16.12
2016-06-04T01:29:07.337Z,16.07
2016-06-04T01:29:17.337Z,16.15
2016-06-04T01:29:27.353Z,16.14
2016-06-04T01:29:37.353Z,16.12
2016-06-04T01:29:47.356Z,16.11
2016-06-04T01:29:57.356Z,16.15
2016-06-04T01:30:07.371Z,16.21
2016-06-04T01:30:17.371Z,16.17
2016-06-04T01:30:27.387Z,16.07
2016-06-04T01:30:37.387Z,16.08
2016-06-04T01:30:47.390Z,16.15
2016-06-04T01:30:57.405Z,16.01
2016-06-04T01:31:07.405Z,16.14
2016-06-04T01:31:17.405Z,16.07
2016-06-04T01:31:27.405Z,16.09
2016-06-04T01:31:37.421Z,16.11
2016-06-04T01:31:47.423Z,16.11
2016-06-04T01:31:57.423Z,16.07
2016-06-04T01:32:07.439Z,16.07
2016-06-04T01:32:17.439Z,16.09
2016-06-04T01:32:27.439Z,16.05
2016-06-04T01:32:37.454Z,16.09
2016-06-04T01:32:47.457Z,16.07
2016-06-04T01:32:57.457Z,16.05
2016-06-04T01:33:07.473Z,15.97
2016-06-04T01:33:17.473Z,16.07
2016-06-04T01:33:27.473Z,15.93
2016-06-04T01:33:37.473Z,16.09
2016-06-04T01:33:47.491Z,15.97
2016-06-04T01:33:57.491Z,16.11
2016-06-04T01:34:07.506Z,16.05
2016-06-04T01:34:17.506Z,16.09
2016-06-04T01:34:27.522Z,16.08
2016-06-04T01:34:37.522Z,16
2016-06-04T01:34:47.526Z,16.02
2016-06-04T01:34:57.526Z,16
2016-06-04T01:35:07.541Z,16.04
2016-06-04T01:35:17.541Z,16.01
2016-06-04T01:35:27.385Z,16.01
2016-06-04T01:35:37.541Z,16.11
2016-06-04T01:35:47.559Z,15.97
2016-06-04T01:35:57.559Z,16
2016-06-04T01:36:07.575Z,16
2016-06-04T01:36:17.575Z,15.97
2016-06-04T01:36:27.575Z,16.07
2016-06-04T01:36:37.575Z,15.94
2016-06-04T01:36:47.593Z,16.02
2016-06-04T01:36:57.593Z,16.04
2016-06-04T01:37:07.593Z,16.02
2016-06-04T01:37:17.609Z,16.07
2016-06-04T01:37:27.609Z,16.04
2016-06-04T01:37:37.609Z,16.05
2016-06-04T01:37:47.628Z,15.97
2016-06-04T01:37:57.643Z,16
2016-06-04T01:38:07.643Z,16.01
2016-06-04T01:38:17.643Z,16
2016-06-04T01:38:27.643Z,16.02
2016-06-04T01:38:37.503Z,15.97
2016-06-04T01:38:47.661Z,16
2016-06-04T01:38:57.661Z,15.97
2016-06-04T01:39:07.676Z,16.01
2016-06-04T01:39:17.520Z,15.97
2016-06-04T01:39:27.676Z,15.97
2016-06-04T01:39:37.692Z,15.97
2016-06-04T01:39:47.695Z,16.01
2016-06-04T01:39:57.695Z,15.97
2016-06-04T01:40:07.695Z,16.02
2016-06-04T01:40:17.711Z,15.97
2016-06-04T01:40:27.711Z,16
2016-06-04T01:40:38.023Z,16.01
2016-06-04T01:40:47.714Z,15.9
2016-06-04T01:40:58.136Z,16.02
2016-06-04T01:41:07.995Z,16.05
2016-06-04T01:41:17.729Z,16.04
2016-06-04T01:41:28.182Z,16
2016-06-04T01:41:37.761Z,16.01
2016-06-04T01:41:48.731Z,16.02
2016-06-04T01:41:57.778Z,15.96
2016-06-04T01:42:07.763Z,16.01
2016-06-04T01:42:17.763Z,16.05
2016-06-04T01:42:27.778Z,15.97
2016-06-04T01:42:37.778Z,16.02
2016-06-04T01:42:47.797Z,15.92
2016-06-04T01:42:57.797Z,16.01
2016-06-04T01:43:07.797Z,16.02
2016-06-04T01:43:17.797Z,16
2016-06-04T01:43:27.812Z,15.96
2016-06-04T01:43:37.812Z,16.02
2016-06-04T01:43:47.815Z,16.02
2016-06-04T01:43:57.831Z,16
2016-06-04T01:44:07.831Z,16.01
2016-06-04T01:44:17.831Z,16.05
2016-06-04T01:44:27.847Z,15.96
2016-06-04T01:44:37.847Z,15.94
2016-06-04T01:44:47.849Z,16.01
2016-06-04T01:44:57.708Z,16.01
2016-06-04T01:45:07.864Z,16.04
2016-06-04T01:45:17.864Z,15.97
2016-06-04T01:45:27.880Z,16
2016-06-04T01:45:37.880Z,15.96
2016-06-04T01:45:47.883Z,16
2016-06-04T01:45:57.899Z,15.97
2016-06-04T01:46:07.899Z,15.89
2016-06-04T01:46:17.914Z,15.94
2016-06-04T01:46:27.914Z,15.92
2016-06-04T01:46:37.914Z,15.89
2016-06-04T01:46:47.917Z,15.92
2016-06-04T01:46:57.933Z,15.9
2016-06-04T01:47:07.933Z,16.01
2016-06-04T01:47:17.933Z,15.87
2016-06-04T01:47:27.948Z,16
2016-06-04T01:47:37.948Z,16.01
2016-06-04T01:47:47.951Z,15.96
2016-06-04T01:47:57.967Z,15.86
2016-06-04T01:48:07.967Z,15.87
2016-06-04T01:48:17.967Z,15.93
2016-06-04T01:48:27.967Z,15.94
2016-06-04T01:48:37.983Z,15.92
2016-06-04T01:48:47.844Z,15.9
2016-06-04T01:48:57.985Z,15.86
2016-06-04T01:49:08.000Z,15.93
2016-06-04T01:49:18.032Z,15.94
2016-06-04T01:49:28.000Z,15.86
2016-06-04T01:49:38.016Z,15.92
2016-06-04T01:49:48.019Z,15.92
2016-06-04T01:49:58.035Z,15.9
2016-06-04T01:50:08.050Z,16
2016-06-04T01:50:18.066Z,15.87
2016-06-04T01:50:28.035Z,15.87
2016-06-04T01:50:38.050Z,15.87
2016-06-04T01:50:48.052Z,15.93
2016-06-04T01:50:58.068Z,15.84
2016-06-04T01:51:08.068Z,15.9
2016-06-04T01:51:18.068Z,15.87
2016-06-04T01:51:28.068Z,15.84
2016-06-04T01:51:38.068Z,15.89
2016-06-04T01:51:48.086Z,15.89
2016-06-04T01:51:58.086Z,15.92
2016-06-04T01:52:08.102Z,15.87
2016-06-04T01:52:18.102Z,15.93
2016-06-04T01:52:28.102Z,15.82
2016-06-04T01:52:38.118Z,15.86
2016-06-04T01:52:48.121Z,15.89
2016-06-04T01:52:58.121Z,15.84
2016-06-04T01:53:08.136Z,15.89
2016-06-04T01:53:18.136Z,15.86
2016-06-04T01:53:28.136Z,15.92
2016-06-04T01:53:38.152Z,15.86
2016-06-04T01:53:48.185Z,15.87
2016-06-04T01:53:58.154Z,15.84
2016-06-04T01:54:08.154Z,15.84
2016-06-04T01:54:18.170Z,15.86
2016-06-04T01:54:28.185Z,15.89
2016-06-04T01:54:38.201Z,15.86
2016-06-04T01:54:48.188Z,15.84
2016-06-04T01:54:58.188Z,15.84
2016-06-04T01:55:08.188Z,15.84
2016-06-04T01:55:18.204Z,15.83
2016-06-04T01:55:28.219Z,15.86
2016-06-04T01:55:38.235Z,15.89
2016-06-04T01:55:48.332Z,15.92
2016-06-04T01:55:58.269Z,15.82
2016-06-04T01:56:08.222Z,15.93
2016-06-04T01:56:18.597Z,15.86
2016-06-04T01:56:28.238Z,15.9
2016-06-04T01:56:38.394Z,15.86
2016-06-04T01:56:48.304Z,15.87
2016-06-04T01:56:58.272Z,15.87
2016-06-04T01:57:08.257Z,15.78
2016-06-04T01:57:18.272Z,15.8
2016-06-04T01:57:28.272Z,15.87
2016-06-04T01:57:38.272Z,15.89
2016-06-04T01:57:48.291Z,15.86
2016-06-04T01:57:58.291Z,15.86
2016-06-04T01:58:08.307Z,15.84
2016-06-04T01:58:18.291Z,15.83
2016-06-04T01:58:28.307Z,15.83
2016-06-04T01:58:38.307Z,15.8
2016-06-04T01:58:48.324Z,15.83
2016-06-04T01:58:58.324Z,15.84
2016-06-04T01:59:08.324Z,15.82
2016-06-04T01:59:18.340Z,15.83
2016-06-04T01:59:28.340Z,15.87
2016-06-04T01:59:38.340Z,15.83
2016-06-04T01:59:48.357Z,15.84
2016-06-04T01:59:58.357Z,15.8
2016-06-04T02:00:08.357Z,15.83
2016-06-04T02:00:18.373Z,15.8
2016-06-04T02:00:28.373Z,15.84
2016-06-04T02:00:38.373Z,15.8
2016-06-04T02:00:48.377Z,15.86
2016-06-04T02:00:58.393Z,15.75
2016-06-04T02:01:08.393Z,15.72
2016-06-04T02:01:18.393Z,15.72
2016-06-04T02:01:28.408Z,15.83
2016-06-04T02:01:38.424Z,15.82
2016-06-04T02:01:48.426Z,15.82
2016-06-04T02:01:58.426Z,15.84
2016-06-04T02:02:08.426Z,15.83
2016-06-04T02:02:18.426Z,15.8
2016-06-04T02:02:28.442Z,15.82
2016-06-04T02:02:38.442Z,15.71
2016-06-04T02:02:48.444Z,15.75
2016-06-04T02:02:58.459Z,15.86
2016-06-04T02:03:08.459Z,15.87
2016-06-04T02:03:18.459Z,15.83
2016-06-04T02:03:28.475Z,15.86
2016-06-04T02:03:38.475Z,15.82
2016-06-04T02:03:48.479Z,15.76
2016-06-04T02:03:58.494Z,15.83
2016-06-04T02:04:08.494Z,15.8
2016-06-04T02:04:18.494Z,15.76
2016-06-04T02:04:28.510Z,15.8
2016-06-04T02:04:38.510Z,15.74
2016-06-04T02:04:48.512Z,15.72
2016-06-04T02:04:58.356Z,15.74
2016-06-04T02:05:08.371Z,15.75
2016-06-04T02:05:18.528Z,15.78
2016-06-04T02:05:28.528Z,15.74
2016-06-04T02:05:38.543Z,15.67
2016-06-04T02:05:48.545Z,15.74
2016-06-04T02:05:58.545Z,15.74
2016-06-04T02:06:08.561Z,15.64
2016-06-04T02:06:18.561Z,15.74
2016-06-04T02:06:28.577Z,15.74
2016-06-04T02:06:38.577Z,15.8
2016-06-04T02:06:48.581Z,15.71
2016-06-04T02:06:58.581Z,15.71
2016-06-04T02:07:08.596Z,15.82
2016-06-04T02:07:18.612Z,15.72
2016-06-04T02:07:28.596Z,15.76
2016-06-04T02:07:38.612Z,15.72
2016-06-04T02:07:48.614Z,15.8
2016-06-04T02:07:58.614Z,15.76
2016-06-04T02:08:08.629Z,15.74
2016-06-04T02:08:18.629Z,15.82
2016-06-04T02:08:28.629Z,15.75
2016-06-04T02:08:38.629Z,15.67
2016-06-04T02:08:48.647Z,15.76
2016-06-04T02:08:58.647Z,15.8
2016-06-04T02:09:08.663Z,15.65
2016-06-04T02:09:18.663Z,15.72
2016-06-04T02:09:28.678Z,15.78
2016-06-04T02:09:38.506Z,15.76
2016-06-04T02:09:48.682Z,15.69
2016-06-04T02:09:58.682Z,15.68
2016-06-04T02:10:08.698Z,15.65